sensor_id;sensor_type;location;lat;lon;timestamp;pressure;altitude;pressure_sealevel;temperature;humidity
4012;BME280;2020;48.682;9.024;2023-01-29T00:01:04;97437.56;;;-2.27;92.51
4012;BME280;2020;48.682;9.024;2023-01-29T00:03:29;97426.53;;;-2.27;92.17
4012;BME280;2020;48.682;9.024;2023-01-29T00:05:55;97425.06;;;-2.35;92.47
4012;BME280;2020;48.682;9.024;2023-01-29T00:08:20;97435.06;;;-2.28;93.35
4012;BME280;2020;48.682;9.024;2023-01-29T00:10:45;97429.16;;;-2.29;93.41
4012;BME280;2020;48.682;9.024;2023-01-29T00:13:11;97426.53;;;-2.27;92.32
4012;BME280;2020;48.682;9.024;2023-01-29T00:15:36;97425.53;;;-2.23;92.39
4012;BME280;2020;48.682;9.024;2023-01-29T00:18:01;97424.53;;;-2.19;92.73
4012;BME280;2020;48.682;9.024;2023-01-29T00:20:27;97427.06;;;-2.17;92.99
4012;BME280;2020;48.682;9.024;2023-01-29T00:22:52;97429.50;;;-2.14;91.68
4012;BME280;2020;48.682;9.024;2023-01-29T00:25:17;97424.53;;;-2.19;92.53
4012;BME280;2020;48.682;9.024;2023-01-29T00:27:43;97421.88;;;-2.16;92.15
4012;BME280;2020;48.682;9.024;2023-01-29T00:30:09;97417.88;;;-2.23;90.92
4012;BME280;2020;48.682;9.024;2023-01-29T00:32:37;97416.53;;;-2.33;92.06
4012;BME280;2020;48.682;9.024;2023-01-29T00:35:03;97423.09;;;-2.26;92.91
4012;BME280;2020;48.682;9.024;2023-01-29T00:37:28;97428.94;;;-2.23;93.25
4012;BME280;2020;48.682;9.024;2023-01-29T00:39:54;97424.53;;;-2.19;92.64
4012;BME280;2020;48.682;9.024;2023-01-29T00:42:19;97421.09;;;-2.18;92.97
4012;BME280;2020;48.682;9.024;2023-01-29T00:45:03;97416.75;;;-2.14;93.27
4012;BME280;2020;48.682;9.024;2023-01-29T00:47:28;97417.63;;;-2.15;92.35
4012;BME280;2020;48.682;9.024;2023-01-29T00:50:06;97428.72;;;-2.16;91.80
4012;BME280;2020;48.682;9.024;2023-01-29T00:52:31;97421.09;;;-2.18;91.63
4012;BME280;2020;48.682;9.024;2023-01-29T00:54:58;97423.44;;;-2.12;92.35
4012;BME280;2020;48.682;9.024;2023-01-29T00:57:25;97418.25;;;-2.09;92.42
4012;BME280;2020;48.682;9.024;2023-01-29T00:59:51;97415.69;;;-2.09;92.37
4012;BME280;2020;48.682;9.024;2023-01-29T01:02:17;97415.69;;;-2.09;91.96
4012;BME280;2020;48.682;9.024;2023-01-29T01:05:02;97419.22;;;-2.13;91.27
4012;BME280;2020;48.682;9.024;2023-01-29T01:07:28;97410.81;;;-2.15;91.38
4012;BME280;2020;48.682;9.024;2023-01-29T01:09:54;97415.78;;;-2.12;91.48
4012;BME280;2020;48.682;9.024;2023-01-29T01:12:38;97420.00;;;-2.11;91.73
4012;BME280;2020;48.682;9.024;2023-01-29T01:15:03;97420.91;;;-2.12;91.63
4012;BME280;2020;48.682;9.024;2023-01-29T01:17:29;97417.47;;;-2.11;91.52
4012;BME280;2020;48.682;9.024;2023-01-29T01:19:54;97417.47;;;-2.11;90.96
4012;BME280;2020;48.682;9.024;2023-01-29T01:22:20;97427.78;;;-2.14;91.11
4012;BME280;2020;48.682;9.024;2023-01-29T01:24:45;97418.34;;;-2.12;91.43
4012;BME280;2020;48.682;9.024;2023-01-29T01:27:11;97420.91;;;-2.12;91.14
4012;BME280;2020;48.682;9.024;2023-01-29T01:29:36;97414.91;;;-2.11;91.74
4012;BME280;2020;48.682;9.024;2023-01-29T01:32:02;97418.19;;;-2.07;91.68
4012;BME280;2020;48.682;9.024;2023-01-29T01:34:27;97404.50;;;-2.04;91.26
4012;BME280;2020;48.682;9.024;2023-01-29T01:36:53;97414.03;;;-2.10;90.46
4012;BME280;2020;48.682;9.024;2023-01-29T01:39:20;97409.88;;;-2.12;90.33
4012;BME280;2020;48.682;9.024;2023-01-29T01:41:45;97403.94;;;-2.13;91.71
4012;BME280;2020;48.682;9.024;2023-01-29T01:47:14;97409.91;;;-2.14;90.73
4012;BME280;2020;48.682;9.024;2023-01-29T01:49:41;97412.47;;;-2.14;90.33
4012;BME280;2020;48.682;9.024;2023-01-29T01:52:07;97403.94;;;-2.13;91.10
4012;BME280;2020;48.682;9.024;2023-01-29T01:54:32;97407.25;;;-2.11;91.06
4012;BME280;2020;48.682;9.024;2023-01-29T01:57:12;97406.44;;;-2.11;90.81
4012;BME280;2020;48.682;9.024;2023-01-29T01:59:42;97402.03;;;-2.08;90.24
4012;BME280;2020;48.682;9.024;2023-01-29T02:02:10;97396.84;;;-2.04;89.94
4012;BME280;2020;48.682;9.024;2023-01-29T02:04:54;97394.28;;;-2.04;89.19
4012;BME280;2020;48.682;9.024;2023-01-29T02:07:40;97400.16;;;-2.02;89.95
4012;BME280;2020;48.682;9.024;2023-01-29T02:10:26;97396.91;;;-2.06;89.88
4012;BME280;2020;48.682;9.024;2023-01-29T02:12:52;97396.00;;;-2.05;88.65
4012;BME280;2020;48.682;9.024;2023-01-29T02:15:17;97401.16;;;-2.07;89.62
4012;BME280;2020;48.682;9.024;2023-01-29T02:17:43;97405.47;;;-2.09;89.94
4012;BME280;2020;48.682;9.024;2023-01-29T02:20:38;97416.56;;;-2.10;89.28
4012;BME280;2020;48.682;9.024;2023-01-29T02:23:20;97414.13;;;-2.13;89.42
4012;BME280;2020;48.682;9.024;2023-01-29T02:28:50;97423.84;;;-2.23;88.57
4012;BME280;2020;48.682;9.024;2023-01-29T02:33:58;97409.34;;;-2.22;90.72
4012;BME280;2020;48.682;9.024;2023-01-29T02:37:24;97417.06;;;-2.24;89.32
4012;BME280;2020;48.682;9.024;2023-01-29T02:39:43;97418.09;;;-2.29;89.02
4012;BME280;2020;48.682;9.024;2023-01-29T02:45:47;97416.22;;;-2.24;89.50
4012;BME280;2020;48.682;9.024;2023-01-29T02:48:19;97413.75;;;-2.26;89.37
4012;BME280;2020;48.682;9.024;2023-01-29T02:50:58;97409.25;;;-2.19;88.72
4012;BME280;2020;48.682;9.024;2023-01-29T02:53:28;97417.88;;;-2.23;88.56
4012;BME280;2020;48.682;9.024;2023-01-29T02:56:12;97419.56;;;-2.22;88.59
4012;BME280;2020;48.682;9.024;2023-01-29T02:58:58;97412.78;;;-2.23;88.72
4012;BME280;2020;48.682;9.024;2023-01-29T03:01:33;97417.88;;;-2.23;89.47
4012;BME280;2020;48.682;9.024;2023-01-29T03:04:07;97410.13;;;-2.20;89.72
4012;BME280;2020;48.682;9.024;2023-01-29T03:06:40;97405.91;;;-2.21;90.00
4012;BME280;2020;48.682;9.024;2023-01-29T03:09:32;97404.13;;;-2.19;90.18
4012;BME280;2020;48.682;9.024;2023-01-29T03:12:03;97406.53;;;-2.14;89.61
4012;BME280;2020;48.682;9.024;2023-01-29T03:14:45;97409.03;;;-2.13;89.04
4012;BME280;2020;48.682;9.024;2023-01-29T03:17:35;97409.03;;;-2.13;88.43
4012;BME280;2020;48.682;9.024;2023-01-29T03:20:06;97407.47;;;-2.17;88.80
4012;BME280;2020;48.682;9.024;2023-01-29T03:22:34;97409.13;;;-2.16;88.89
4012;BME280;2020;48.682;9.024;2023-01-29T03:25:03;97405.69;;;-2.15;89.55
4012;BME280;2020;48.682;9.024;2023-01-29T03:27:51;97406.47;;;-2.13;89.65
4012;BME280;2020;48.682;9.024;2023-01-29T03:30:44;97400.38;;;-2.09;89.82
4012;BME280;2020;48.682;9.024;2023-01-29T03:33:32;97398.72;;;-2.10;89.30
4012;BME280;2020;48.682;9.024;2023-01-29T03:36:05;97410.81;;;-2.15;88.66
4012;BME280;2020;48.682;9.024;2023-01-29T03:38:32;97410.81;;;-2.15;88.46
4012;BME280;2020;48.682;9.024;2023-01-29T03:41:21;97411.84;;;-2.21;88.20
4012;BME280;2020;48.682;9.024;2023-01-29T03:46:51;97410.81;;;-2.15;89.58
4012;BME280;2020;48.682;9.024;2023-01-29T03:49:29;97407.47;;;-2.17;89.66
4012;BME280;2020;48.682;9.024;2023-01-29T03:52:15;97415.91;;;-2.15;88.36
4012;BME280;2020;48.682;9.024;2023-01-29T03:54:49;97410.03;;;-2.17;89.20
4012;BME280;2020;48.682;9.024;2023-01-29T03:57:30;97408.22;;;-2.13;89.26
4012;BME280;2020;48.682;9.024;2023-01-29T04:00:17;97403.00;;;-2.10;88.59
4012;BME280;2020;48.682;9.024;2023-01-29T04:05:24;97409.03;;;-2.13;88.59
4012;BME280;2020;48.682;9.024;2023-01-29T04:07:57;97408.91;;;-2.10;88.53
4012;BME280;2020;48.682;9.024;2023-01-29T04:10:26;97405.47;;;-2.09;87.78
4012;BME280;2020;48.682;9.024;2023-01-29T04:13:00;97408.91;;;-2.10;88.53
4012;BME280;2020;48.682;9.024;2023-01-29T04:15:28;97407.25;;;-2.11;88.71
4012;BME280;2020;48.682;9.024;2023-01-29T04:17:56;97411.84;;;-2.21;88.36
4012;BME280;2020;48.682;9.024;2023-01-29T04:20:22;97411.75;;;-2.17;88.83
4012;BME280;2020;48.682;9.024;2023-01-29T04:22:49;97409.03;;;-2.13;88.62
4012;BME280;2020;48.682;9.024;2023-01-29T04:25:17;97414.03;;;-2.10;87.60
4012;BME280;2020;48.682;9.024;2023-01-29T04:28:06;97403.81;;;-2.10;88.14
4012;BME280;2020;48.682;9.024;2023-01-29T04:35:54;97412.88;;;-2.26;87.97
4012;BME280;2020;48.682;9.024;2023-01-29T04:38:46;97415.75;;;-2.36;86.70
4012;BME280;2020;48.682;9.024;2023-01-29T04:41:22;97413.94;;;-2.32;87.69
4012;BME280;2020;48.682;9.024;2023-01-29T04:49:47;97402.47;;;-2.20;88.30
4012;BME280;2020;48.682;9.024;2023-01-29T04:52:21;97403.16;;;-2.15;88.63
4012;BME280;2020;48.682;9.024;2023-01-29T04:54:58;97402.25;;;-2.14;88.11
4012;BME280;2020;48.682;9.024;2023-01-29T04:57:34;97402.47;;;-2.20;87.84
4012;BME280;2020;48.682;9.024;2023-01-29T05:00:12;97406.91;;;-2.25;86.75
4012;BME280;2020;48.682;9.024;2023-01-29T05:02:41;97412.06;;;-2.27;87.90
4012;BME280;2020;48.682;9.024;2023-01-29T05:05:09;97407.00;;;-2.28;88.30
4012;BME280;2020;48.682;9.024;2023-01-29T05:07:37;97406.13;;;-2.27;87.19
4012;BME280;2020;48.682;9.024;2023-01-29T05:10:04;97405.97;;;-2.23;87.73
4012;BME280;2020;48.682;9.024;2023-01-29T05:12:31;97404.25;;;-2.22;87.34
4012;BME280;2020;48.682;9.024;2023-01-29T05:15:00;97413.63;;;-2.23;87.59
4012;BME280;2020;48.682;9.024;2023-01-29T05:17:26;97408.44;;;-2.19;87.63
4012;BME280;2020;48.682;9.024;2023-01-29T05:19:52;97410.22;;;-2.23;84.97
4012;BME280;2020;48.682;9.024;2023-01-29T05:22:19;97409.25;;;-2.19;84.44
4012;BME280;2020;48.682;9.024;2023-01-29T05:24:47;97403.25;;;-2.18;84.82
4012;BME280;2020;48.682;9.024;2023-01-29T05:27:30;97395.81;;;-2.24;83.33
4012;BME280;2020;48.682;9.024;2023-01-29T05:30:16;97401.88;;;-2.27;83.41
4012;BME280;2020;48.682;9.024;2023-01-29T05:32:42;97405.66;;;-2.39;83.16
4012;BME280;2020;48.682;9.024;2023-01-29T05:35:07;97409.19;;;-2.43;83.58
4012;BME280;2020;48.682;9.024;2023-01-29T05:37:32;97408.09;;;-2.36;84.51
4012;BME280;2020;48.682;9.024;2023-01-29T05:39:58;97416.63;;;-2.37;84.86
4012;BME280;2020;48.682;9.024;2023-01-29T05:42:23;97415.66;;;-2.32;85.01
4012;BME280;2020;48.682;9.024;2023-01-29T05:44:48;97411.22;;;-2.27;84.64
4012;BME280;2020;48.682;9.024;2023-01-29T05:47:18;97414.75;;;-2.31;84.85
4012;BME280;2020;48.682;9.024;2023-01-29T05:49:43;97413.66;;;-2.24;85.96
4012;BME280;2020;48.682;9.024;2023-01-29T05:52:09;97412.06;;;-2.27;84.77
4012;BME280;2020;48.682;9.024;2023-01-29T05:54:34;97404.34;;;-2.25;84.41
4012;BME280;2020;48.682;9.024;2023-01-29T05:56:59;97393.16;;;-2.21;83.42
4012;BME280;2020;48.682;9.024;2023-01-29T05:59:24;97375.53;;;-2.27;82.82
4012;BME280;2020;48.682;9.024;2023-01-29T06:01:50;97374.06;;;-2.35;83.33
4012;BME280;2020;48.682;9.024;2023-01-29T06:04:15;97366.28;;;-2.30;83.34
4012;BME280;2020;48.682;9.024;2023-01-29T06:06:40;97363.75;;;-2.31;83.55
4012;BME280;2020;48.682;9.024;2023-01-29T06:09:05;97359.88;;;-2.42;82.36
4012;BME280;2020;48.682;9.024;2023-01-29T06:11:31;97369.06;;;-2.38;83.41
4012;BME280;2020;48.682;9.024;2023-01-29T06:13:56;97380.78;;;-2.57;83.41
4012;BME280;2020;48.682;9.024;2023-01-29T06:16:21;97372.16;;;-2.53;84.00
4012;BME280;2020;48.682;9.024;2023-01-29T06:18:47;97386.66;;;-2.55;83.49
4012;BME280;2020;48.682;9.024;2023-01-29T06:21:12;97384.38;;;-2.63;82.28
4012;BME280;2020;48.682;9.024;2023-01-29T06:23:38;97383.44;;;-2.60;83.38
4012;BME280;2020;48.682;9.024;2023-01-29T06:26:09;97400.41;;;-2.59;83.74
4012;BME280;2020;48.682;9.024;2023-01-29T06:28:35;97383.91;;;-2.49;84.98
4012;BME280;2020;48.682;9.024;2023-01-29T06:31:02;97388.97;;;-2.47;84.08
4012;BME280;2020;48.682;9.024;2023-01-29T06:33:27;97389.69;;;-2.44;84.82
4012;BME280;2020;48.682;9.024;2023-01-29T06:36:01;97394.69;;;-2.41;83.88
4012;BME280;2020;48.682;9.024;2023-01-29T06:38:26;97394.56;;;-2.38;83.25
4012;BME280;2020;48.682;9.024;2023-01-29T06:40:52;97394.69;;;-2.41;82.87
4012;BME280;2020;48.682;9.024;2023-01-29T06:43:18;97399.66;;;-2.38;83.72
4012;BME280;2020;48.682;9.024;2023-01-29T06:45:52;97400.56;;;-2.39;84.07
4012;BME280;2020;48.682;9.024;2023-01-29T06:48:18;97408.22;;;-2.39;84.28
4012;BME280;2020;48.682;9.024;2023-01-29T06:50:44;97399.78;;;-2.41;83.25
4012;BME280;2020;48.682;9.024;2023-01-29T06:53:10;97406.66;;;-2.43;83.06
4012;BME280;2020;48.682;9.024;2023-01-29T06:55:35;97404.78;;;-2.38;83.55
4012;BME280;2020;48.682;9.024;2023-01-29T06:58:05;97396.31;;;-2.38;83.71
4012;BME280;2020;48.682;9.024;2023-01-29T07:00:31;97399.56;;;-2.35;84.37
4012;BME280;2020;48.682;9.024;2023-01-29T07:02:57;97402.97;;;-2.34;82.26
4012;BME280;2020;48.682;9.024;2023-01-29T07:05:22;97409.78;;;-2.35;84.27
4012;BME280;2020;48.682;9.024;2023-01-29T07:07:47;97414.94;;;-2.36;83.04
4012;BME280;2020;48.682;9.024;2023-01-29T07:10:13;97414.88;;;-2.35;83.50
4012;BME280;2020;48.682;9.024;2023-01-29T07:12:38;97413.97;;;-2.33;82.74
4012;BME280;2020;48.682;9.024;2023-01-29T07:15:03;97416.31;;;-2.27;84.47
4012;BME280;2020;48.682;9.024;2023-01-29T07:17:29;97412.88;;;-2.26;84.52
4012;BME280;2020;48.682;9.024;2023-01-29T07:19:54;97411.09;;;-2.23;84.34
4012;BME280;2020;48.682;9.024;2023-01-29T07:22:19;97402.78;;;-2.29;82.31
4012;BME280;2020;48.682;9.024;2023-01-29T07:24:45;97406.97;;;-2.27;83.79
4012;BME280;2020;48.682;9.024;2023-01-29T07:27:10;97410.41;;;-2.28;83.00
4012;BME280;2020;48.682;9.024;2023-01-29T07:29:35;97414.16;;;-2.38;81.61
4012;BME280;2020;48.682;9.024;2023-01-29T07:32:00;97415.53;;;-2.29;83.67
4012;BME280;2020;48.682;9.024;2023-01-29T07:34:26;97416.16;;;-2.48;83.10
4012;BME280;2020;48.682;9.024;2023-01-29T07:36:54;97415.00;;;-2.65;83.11
4012;BME280;2020;48.682;9.024;2023-01-29T07:39:21;97422.63;;;-2.63;82.45
4012;BME280;2020;48.682;9.024;2023-01-29T07:41:46;97425.88;;;-2.59;83.36
4012;BME280;2020;48.682;9.024;2023-01-29T07:44:11;97439.22;;;-2.51;82.87
4012;BME280;2020;48.682;9.024;2023-01-29T07:46:36;97437.25;;;-2.43;83.79
4012;BME280;2020;48.682;9.024;2023-01-29T07:49:02;97440.38;;;-2.35;83.35
4012;BME280;2020;48.682;9.024;2023-01-29T07:51:27;97440.06;;;-2.25;83.56
4012;BME280;2020;48.682;9.024;2023-01-29T07:53:52;97440.06;;;-2.25;83.10
4012;BME280;2020;48.682;9.024;2023-01-29T07:56:17;97435.16;;;-2.31;81.57
4012;BME280;2020;48.682;9.024;2023-01-29T07:58:43;97443.81;;;-2.36;82.34
4012;BME280;2020;48.682;9.024;2023-01-29T08:01:08;97439.59;;;-2.37;82.80
4012;BME280;2020;48.682;9.024;2023-01-29T08:03:33;97448.81;;;-2.32;83.30
4012;BME280;2020;48.682;9.024;2023-01-29T08:05:59;97445.25;;;-2.28;83.29
4012;BME280;2020;48.682;9.024;2023-01-29T08:08:25;97457.03;;;-2.24;84.30
4012;BME280;2020;48.682;9.024;2023-01-29T08:10:50;97465.47;;;-2.22;82.67
4012;BME280;2020;48.682;9.024;2023-01-29T08:13:15;97459.00;;;-2.32;81.16
4012;BME280;2020;48.682;9.024;2023-01-29T08:15:44;97443.59;;;-2.29;82.64
4012;BME280;2020;48.682;9.024;2023-01-29T08:18:10;97447.78;;;-2.27;82.06
4012;BME280;2020;48.682;9.024;2023-01-29T08:20:35;97448.69;;;-2.29;81.94
4012;BME280;2020;48.682;9.024;2023-01-29T08:23:03;97441.94;;;-2.30;82.54
4012;BME280;2020;48.682;9.024;2023-01-29T08:25:30;97446.88;;;-2.51;81.83
4012;BME280;2020;48.682;9.024;2023-01-29T08:27:56;97451.28;;;-2.56;82.25
4012;BME280;2020;48.682;9.024;2023-01-29T08:32:49;97458.63;;;-2.47;81.22
4012;BME280;2020;48.682;9.024;2023-01-29T08:35:14;97454.31;;;-2.45;82.22
4012;BME280;2020;48.682;9.024;2023-01-29T08:51:23;97469.22;;;-2.32;80.56
4012;BME280;2020;48.682;9.024;2023-01-29T08:53:49;97471.81;;;-2.34;81.08
4012;BME280;2020;48.682;9.024;2023-01-29T08:56:14;97470.19;;;-2.37;80.96
4012;BME280;2020;48.682;9.024;2023-01-29T08:58:40;97479.41;;;-2.32;81.17
4012;BME280;2020;48.682;9.024;2023-01-29T09:01:11;97479.22;;;-2.26;82.11
4012;BME280;2020;48.682;9.024;2023-01-29T09:03:37;97479.78;;;-2.18;81.04
4012;BME280;2020;48.682;9.024;2023-01-29T09:06:05;97473.91;;;-2.20;81.47
4012;BME280;2020;48.682;9.024;2023-01-29T09:08:32;97472.03;;;-2.15;81.44
4012;BME280;2020;48.682;9.024;2023-01-29T09:10:58;97475.22;;;-2.08;80.97
4012;BME280;2020;48.682;9.024;2023-01-29T09:13:24;97469.13;;;-2.04;81.35
4012;BME280;2020;48.682;9.024;2023-01-29T09:15:49;97476.53;;;-1.96;81.71
4012;BME280;2020;48.682;9.024;2023-01-29T09:18:14;97477.91;;;-1.87;81.64
4012;BME280;2020;48.682;9.024;2023-01-29T09:20:40;97483.13;;;-1.91;80.59
4012;BME280;2020;48.682;9.024;2023-01-29T09:23:07;97489.00;;;-2.14;80.48
4012;BME280;2020;48.682;9.024;2023-01-29T09:25:34;97486.63;;;-2.18;79.69
4012;BME280;2020;48.682;9.024;2023-01-29T09:28:00;97486.34;;;-2.36;80.93
4012;BME280;2020;48.682;9.024;2023-01-29T09:30:25;97482.63;;;-2.27;81.92
4012;BME280;2020;48.682;9.024;2023-01-29T09:32:50;97490.88;;;-2.19;80.99
4012;BME280;2020;48.682;9.024;2023-01-29T09:35:15;97483.91;;;-2.14;80.53
4012;BME280;2020;48.682;9.024;2023-01-29T09:37:41;97480.31;;;-2.08;81.63
4012;BME280;2020;48.682;9.024;2023-01-29T09:40:07;97482.59;;;-2.00;82.37
4012;BME280;2020;48.682;9.024;2023-01-29T09:42:46;97482.44;;;-1.96;80.78
4012;BME280;2020;48.682;9.024;2023-01-29T09:45:21;97484.75;;;-1.88;81.15
4012;BME280;2020;48.682;9.024;2023-01-29T09:47:49;97489.66;;;-1.82;80.88
4012;BME280;2020;48.682;9.024;2023-01-29T09:52:57;97486.63;;;-1.93;80.04
4012;BME280;2020;48.682;9.024;2023-01-29T09:55:26;97481.22;;;-1.84;80.60
4012;BME280;2020;48.682;9.024;2023-01-29T09:58:10;97477.88;;;-1.86;78.70
4012;BME280;2020;48.682;9.024;2023-01-29T10:14:07;97427.34;;;-2.01;81.30
4012;BME280;2020;48.682;9.024;2023-01-29T10:17:09;97423.91;;;-2.00;80.24
4012;BME280;2020;48.682;9.024;2023-01-29T10:24:56;97414.50;;;-1.74;79.77
4012;BME280;2020;48.682;9.024;2023-01-29T10:27:32;97406.56;;;-1.67;79.92
4012;BME280;2020;48.682;9.024;2023-01-29T10:29:59;97412.97;;;-1.79;78.55
4012;BME280;2020;48.682;9.024;2023-01-29T10:32:36;97411.28;;;-1.80;79.79
4012;BME280;2020;48.682;9.024;2023-01-29T10:35:05;97420.31;;;-1.71;78.03
4012;BME280;2020;48.682;9.024;2023-01-29T10:37:41;97421.63;;;-1.83;80.02
4012;BME280;2020;48.682;9.024;2023-01-29T10:40:37;97421.06;;;-1.67;79.84
4012;BME280;2020;48.682;9.024;2023-01-29T10:43:15;97409.94;;;-1.42;78.90
4012;BME280;2020;48.682;9.024;2023-01-29T10:45:54;97415.22;;;-1.25;77.78
4012;BME280;2020;48.682;9.024;2023-01-29T10:48:29;97416.25;;;-1.29;76.92
4012;BME280;2020;48.682;9.024;2023-01-29T10:54:19;97416.00;;;-1.23;77.73
4012;BME280;2020;48.682;9.024;2023-01-29T10:56:46;97418.50;;;-1.43;78.07
4012;BME280;2020;48.682;9.024;2023-01-29T11:01:49;97414.34;;;-1.24;77.35
4012;BME280;2020;48.682;9.024;2023-01-29T11:04:14;97409.13;;;-1.21;76.95
4012;BME280;2020;48.682;9.024;2023-01-29T11:06:40;97412.31;;;-1.15;77.87
4012;BME280;2020;48.682;9.024;2023-01-29T11:12:02;97408.41;;;-1.02;77.92
4012;BME280;2020;48.682;9.024;2023-01-29T11:16:58;97413.63;;;-1.05;76.46
4012;BME280;2020;48.682;9.024;2023-01-29T11:19:42;97420.25;;;-0.99;76.58
4012;BME280;2020;48.682;9.024;2023-01-29T11:22:16;97415.19;;;-1.01;76.83
4012;BME280;2020;48.682;9.024;2023-01-29T11:24:42;97403.69;;;-0.91;77.46
4012;BME280;2020;48.682;9.024;2023-01-29T11:27:41;97406.13;;;-0.88;76.43
4012;BME280;2020;48.682;9.024;2023-01-29T11:30:14;97394.38;;;-0.92;76.38
4012;BME280;2020;48.682;9.024;2023-01-29T11:32:43;97393.59;;;-0.94;75.27
4012;BME280;2020;48.682;9.024;2023-01-29T11:37:42;97392.09;;;-0.77;76.25
4012;BME280;2020;48.682;9.024;2023-01-29T11:42:42;97383.41;;;-0.73;77.01
4012;BME280;2020;48.682;9.024;2023-01-29T11:47:51;97379.72;;;-0.66;74.95
4012;BME280;2020;48.682;9.024;2023-01-29T11:50:29;97377.81;;;-0.61;77.02
4012;BME280;2020;48.682;9.024;2023-01-29T11:52:58;97373.16;;;-0.73;75.22
4012;BME280;2020;48.682;9.024;2023-01-29T11:55:31;97376.63;;;-0.74;75.96
4012;BME280;2020;48.682;9.024;2023-01-29T12:00:30;97367.94;;;-0.70;75.54
4012;BME280;2020;48.682;9.024;2023-01-29T12:03:06;97372.69;;;-0.61;76.01
4012;BME280;2020;48.682;9.024;2023-01-29T12:05:35;97377.28;;;-0.48;76.69
4012;BME280;2020;48.682;9.024;2023-01-29T12:08:01;97368.59;;;-0.44;77.42
4012;BME280;2020;48.682;9.024;2023-01-29T12:10:38;97370.94;;;-0.39;75.87
4012;BME280;2020;48.682;9.024;2023-01-29T12:15:37;97365.13;;;-0.43;76.05
4012;BME280;2020;48.682;9.024;2023-01-29T12:20:50;97341.84;;;-0.37;75.50
4012;BME280;2020;48.682;9.024;2023-01-29T12:24:05;97332.06;;;-0.48;74.34
4012;BME280;2020;48.682;9.024;2023-01-29T12:26:45;97325.88;;;-0.83;74.82
4012;BME280;2020;48.682;9.024;2023-01-29T12:32:13;97315.88;;;-0.27;75.26
4012;BME280;2020;48.682;9.024;2023-01-29T12:34:59;97308.47;;;-0.34;73.28
4012;BME280;2020;48.682;9.024;2023-01-29T12:37:51;97296.44;;;-0.12;74.44
4012;BME280;2020;48.682;9.024;2023-01-29T12:40:20;97280.81;;;0.13;73.35
4012;BME280;2020;48.682;9.024;2023-01-29T12:42:51;97274.50;;;0.20;71.75
4012;BME280;2020;48.682;9.024;2023-01-29T12:45:20;97275.00;;;-0.29;72.17
4012;BME280;2020;48.682;9.024;2023-01-29T12:47:49;97267.75;;;-0.19;72.29
4012;BME280;2020;48.682;9.024;2023-01-29T12:52:58;97251.06;;;-0.09;72.29
4012;BME280;2020;48.682;9.024;2023-01-29T12:55:35;97245.88;;;-0.46;71.91
4012;BME280;2020;48.682;9.024;2023-01-29T12:58:04;97242.00;;;-0.16;73.29
4012;BME280;2020;48.682;9.024;2023-01-29T13:00:37;97236.38;;;0.14;71.67
4012;BME280;2020;48.682;9.024;2023-01-29T13:03:17;97239.16;;;0.46;71.22
4012;BME280;2020;48.682;9.024;2023-01-29T13:05:45;97244.03;;;0.70;70.03
4012;BME280;2020;48.682;9.024;2023-01-29T13:08:22;97247.34;;;0.90;70.38
4012;BME280;2020;48.682;9.024;2023-01-29T13:10:51;97242.28;;;1.39;69.07
4012;BME280;2020;48.682;9.024;2023-01-29T13:13:29;97235.59;;;1.19;69.44
4012;BME280;2020;48.682;9.024;2023-01-29T13:15:55;97241.97;;;1.45;67.50
4012;BME280;2020;48.682;9.024;2023-01-29T13:21:02;97240.75;;;0.84;68.07
4012;BME280;2020;48.682;9.024;2023-01-29T13:23:35;97239.19;;;0.81;69.20
4012;BME280;2020;48.682;9.024;2023-01-29T13:26:02;97235.03;;;0.61;68.93
4012;BME280;2020;48.682;9.024;2023-01-29T13:28:30;97234.44;;;0.56;68.99
4012;BME280;2020;48.682;9.024;2023-01-29T13:31:18;97228.50;;;0.73;68.04
4012;BME280;2020;48.682;9.024;2023-01-29T13:33:59;97226.03;;;0.52;67.51
4012;BME280;2020;48.682;9.024;2023-01-29T13:36:28;97222.25;;;0.24;69.97
4012;BME280;2020;48.682;9.024;2023-01-29T13:38:59;97223.31;;;0.38;69.86
4012;BME280;2020;48.682;9.024;2023-01-29T13:41:37;97223.63;;;0.32;69.86
4012;BME280;2020;48.682;9.024;2023-01-29T13:44:17;97222.22;;;0.43;70.95
4012;BME280;2020;48.682;9.024;2023-01-29T13:46:54;97229.38;;;0.54;69.96
4012;BME280;2020;48.682;9.024;2023-01-29T13:49:27;97224.25;;;0.54;70.63
4012;BME280;2020;48.682;9.024;2023-01-29T13:51:53;97228.50;;;0.73;69.85
4012;BME280;2020;48.682;9.024;2023-01-29T13:54:23;97225.44;;;0.65;70.25
4012;BME280;2020;48.682;9.024;2023-01-29T13:59:21;97234.81;;;0.83;70.38
4012;BME280;2020;48.682;9.024;2023-01-29T14:06:48;97233.25;;;1.66;66.88
4012;BME280;2020;48.682;9.024;2023-01-29T14:12:01;97243.56;;;1.64;66.31
4012;BME280;2020;48.682;9.024;2023-01-29T14:17:20;97242.97;;;1.43;68.08
4012;BME280;2020;48.682;9.024;2023-01-29T14:19:48;97237.31;;;1.36;68.28
4012;BME280;2020;48.682;9.024;2023-01-29T14:22:20;97237.09;;;1.23;68.40
4012;BME280;2020;48.682;9.024;2023-01-29T14:24:46;97241.31;;;0.91;69.67
4012;BME280;2020;48.682;9.024;2023-01-29T14:27:21;97241.75;;;0.81;70.11
4012;BME280;2020;48.682;9.024;2023-01-29T14:29:47;97235.28;;;0.74;70.83
4012;BME280;2020;48.682;9.024;2023-01-29T14:32:22;97245.84;;;0.68;69.89
4012;BME280;2020;48.682;9.024;2023-01-29T14:34:53;97236.66;;;0.27;70.72
4012;BME280;2020;48.682;9.024;2023-01-29T14:37:39;97231.38;;;0.30;71.96
4012;BME280;2020;48.682;9.024;2023-01-29T14:40:18;97233.84;;;0.32;71.13
4012;BME280;2020;48.682;9.024;2023-01-29T14:42:53;97238.69;;;0.38;71.61
4012;BME280;2020;48.682;9.024;2023-01-29T14:45:31;97237.78;;;0.39;72.20
4012;BME280;2020;48.682;9.024;2023-01-29T14:53:05;97229.63;;;0.31;71.49
4012;BME280;2020;48.682;9.024;2023-01-29T14:55:43;97222.88;;;0.47;70.91
4012;BME280;2020;48.682;9.024;2023-01-29T14:58:28;97224.44;;;0.69;70.97
4012;BME280;2020;48.682;9.024;2023-01-29T15:00:56;97222.59;;;0.89;69.08
4012;BME280;2020;48.682;9.024;2023-01-29T15:03:44;97226.81;;;1.07;68.18
4012;BME280;2020;48.682;9.024;2023-01-29T15:06:44;97226.03;;;1.23;68.04
4012;BME280;2020;48.682;9.024;2023-01-29T15:11:55;97222.75;;;0.85;68.05
4012;BME280;2020;48.682;9.024;2023-01-29T15:14:30;97214.00;;;0.54;68.83
4012;BME280;2020;48.682;9.024;2023-01-29T15:19:45;97221.38;;;0.43;70.84
4012;BME280;2020;48.682;9.024;2023-01-29T15:22:19;97226.50;;;0.43;72.44
4012;BME280;2020;48.682;9.024;2023-01-29T15:24:47;97231.75;;;0.40;72.35
4012;BME280;2020;48.682;9.024;2023-01-29T15:27:25;97235.38;;;0.36;71.60
4012;BME280;2020;48.682;9.024;2023-01-29T15:29:58;97231.06;;;0.19;71.42
4012;BME280;2020;48.682;9.024;2023-01-29T15:32:32;97231.84;;;0.02;71.27
4012;BME280;2020;48.682;9.024;2023-01-29T15:34:58;97224.78;;;0.07;72.96
4012;BME280;2020;48.682;9.024;2023-01-29T15:37:32;97225.97;;;-0.01;72.05
4012;BME280;2020;48.682;9.024;2023-01-29T15:39:59;97220.56;;;0.06;72.46
4012;BME280;2020;48.682;9.024;2023-01-29T15:42:41;97219.78;;;0.04;72.61
4012;BME280;2020;48.682;9.024;2023-01-29T15:45:29;97213.88;;;0.03;72.57
4012;BME280;2020;48.682;9.024;2023-01-29T15:48:06;97210.06;;;0.29;72.46
4012;BME280;2020;48.682;9.024;2023-01-29T15:50:40;97214.81;;;0.37;72.82